sensor_id;sensor_type;location;lat;lon;timestamp;P1;durP1;ratioP1;P2;durP2;ratioP2
74660;SDS011;63191;39.566;2.654;2022-12-07T00:01:32;11.40;;;4.70;;
74660;SDS011;63191;39.566;2.654;2022-12-07T00:04:03;12.70;;;5.30;;
74660;SDS011;63191;39.566;2.654;2022-12-07T00:06:35;9.90;;;4.50;;
74660;SDS011;63191;39.566;2.654;2022-12-07T00:09:04;13.60;;;4.80;;
74660;SDS011;63191;39.566;2.654;2022-12-07T00:11:30;11.40;;;4.50;;
74660;SDS011;63191;39.566;2.654;2022-12-07T00:13:58;15.40;;;6.00;;
74660;SDS011;63191;39.566;2.654;2022-12-07T00:16:28;12.00;;;6.20;;
74660;SDS011;63191;39.566;2.654;2022-12-07T00:18:55;14.50;;;5.00;;
74660;SDS011;63191;39.566;2.654;2022-12-07T00:21:23;14.20;;;4.80;;
74660;SDS011;63191;39.566;2.654;2022-12-07T00:23:51;12.60;;;4.70;;
74660;SDS011;63191;39.566;2.654;2022-12-07T00:26:21;15.20;;;6.50;;
74660;SDS011;63191;39.566;2.654;2022-12-07T00:28:50;16.20;;;6.70;;
74660;SDS011;63191;39.566;2.654;2022-12-07T00:31:23;13.10;;;5.40;;
74660;SDS011;63191;39.566;2.654;2022-12-07T00:33:51;15.30;;;5.30;;
74660;SDS011;63191;39.566;2.654;2022-12-07T00:36:19;11.90;;;5.30;;
74660;SDS011;63191;39.566;2.654;2022-12-07T00:38:46;12.10;;;4.30;;
74660;SDS011;63191;39.566;2.654;2022-12-07T00:41:14;12.60;;;4.30;;
74660;SDS011;63191;39.566;2.654;2022-12-07T00:43:43;9.60;;;4.10;;
74660;SDS011;63191;39.566;2.654;2022-12-07T00:46:10;9.70;;;3.60;;
74660;SDS011;63191;39.566;2.654;2022-12-07T00:48:36;9.80;;;3.30;;
74660;SDS011;63191;39.566;2.654;2022-12-07T00:51:03;8.60;;;2.80;;
74660;SDS011;63191;39.566;2.654;2022-12-07T00:53:30;12.30;;;3.40;;
74660;SDS011;63191;39.566;2.654;2022-12-07T00:55:56;10.80;;;3.10;;
74660;SDS011;63191;39.566;2.654;2022-12-07T00:58:23;9.70;;;2.80;;
74660;SDS011;63191;39.566;2.654;2022-12-07T01:00:49;10.10;;;2.70;;
74660;SDS011;63191;39.566;2.654;2022-12-07T01:03:16;8.30;;;2.60;;
74660;SDS011;63191;39.566;2.654;2022-12-07T01:05:50;8.00;;;2.40;;
74660;SDS011;63191;39.566;2.654;2022-12-07T01:08:17;8.10;;;2.40;;
74660;SDS011;63191;39.566;2.654;2022-12-07T01:10:43;11.00;;;2.90;;
74660;SDS011;63191;39.566;2.654;2022-12-07T01:13:09;14.40;;;2.50;;
74660;SDS011;63191;39.566;2.654;2022-12-07T01:15:39;11.90;;;2.80;;
74660;SDS011;63191;39.566;2.654;2022-12-07T01:18:08;10.80;;;2.40;;
74660;SDS011;63191;39.566;2.654;2022-12-07T01:20:34;8.90;;;2.70;;
74660;SDS011;63191;39.566;2.654;2022-12-07T01:23:01;7.50;;;2.00;;
74660;SDS011;63191;39.566;2.654;2022-12-07T01:25:27;9.00;;;2.60;;
74660;SDS011;63191;39.566;2.654;2022-12-07T01:27:52;8.80;;;2.30;;
74660;SDS011;63191;39.566;2.654;2022-12-07T01:30:18;12.50;;;2.90;;
74660;SDS011;63191;39.566;2.654;2022-12-07T01:32:44;9.20;;;2.30;;
74660;SDS011;63191;39.566;2.654;2022-12-07T01:35:09;9.10;;;2.70;;
74660;SDS011;63191;39.566;2.654;2022-12-07T01:37:36;9.70;;;2.60;;
74660;SDS011;63191;39.566;2.654;2022-12-07T01:40:05;10.80;;;2.60;;
74660;SDS011;63191;39.566;2.654;2022-12-07T01:42:33;7.80;;;2.60;;
74660;SDS011;63191;39.566;2.654;2022-12-07T01:47:55;9.90;;;2.20;;
74660;SDS011;63191;39.566;2.654;2022-12-07T01:50:25;8.90;;;2.40;;
74660;SDS011;63191;39.566;2.654;2022-12-07T01:52:54;8.20;;;2.40;;
74660;SDS011;63191;39.566;2.654;2022-12-07T01:55:22;11.40;;;2.60;;
74660;SDS011;63191;39.566;2.654;2022-12-07T01:57:50;8.80;;;2.70;;
74660;SDS011;63191;39.566;2.654;2022-12-07T02:00:18;8.90;;;2.60;;
74660;SDS011;63191;39.566;2.654;2022-12-07T02:02:53;6.60;;;2.60;;
74660;SDS011;63191;39.566;2.654;2022-12-07T02:05:24;10.50;;;2.30;;
74660;SDS011;63191;39.566;2.654;2022-12-07T02:07:51;10.60;;;2.70;;
74660;SDS011;63191;39.566;2.654;2022-12-07T02:10:21;10.70;;;2.70;;
74660;SDS011;63191;39.566;2.654;2022-12-07T02:13:01;9.30;;;3.80;;
74660;SDS011;63191;39.566;2.654;2022-12-07T02:22:34;12.50;;;4.40;;
74660;SDS011;63191;39.566;2.654;2022-12-07T02:31:49;15.10;;;4.10;;
74660;SDS011;63191;39.566;2.654;2022-12-07T02:35:26;16.70;;;5.00;;
74660;SDS011;63191;39.566;2.654;2022-12-07T02:40:20;18.60;;;5.80;;
74660;SDS011;63191;39.566;2.654;2022-12-07T02:42:55;17.50;;;5.50;;
74660;SDS011;63191;39.566;2.654;2022-12-07T02:45:29;11.60;;;3.80;;
74660;SDS011;63191;39.566;2.654;2022-12-07T02:47:59;12.30;;;3.40;;
74660;SDS011;63191;39.566;2.654;2022-12-07T02:50:26;9.70;;;3.60;;
74660;SDS011;63191;39.566;2.654;2022-12-07T02:52:52;12.00;;;3.70;;
74660;SDS011;63191;39.566;2.654;2022-12-07T02:55:20;9.70;;;2.90;;
74660;SDS011;63191;39.566;2.654;2022-12-07T03:00:43;10.20;;;2.30;;
74660;SDS011;63191;39.566;2.654;2022-12-07T03:03:16;9.50;;;2.70;;
74660;SDS011;63191;39.566;2.654;2022-12-07T03:06:03;11.70;;;3.10;;
74660;SDS011;63191;39.566;2.654;2022-12-07T03:08:41;8.40;;;2.70;;
74660;SDS011;63191;39.566;2.654;2022-12-07T03:11:30;11.70;;;3.30;;
74660;SDS011;63191;39.566;2.654;2022-12-07T03:14:12;11.60;;;2.90;;
74660;SDS011;63191;39.566;2.654;2022-12-07T03:16:45;7.00;;;2.90;;
74660;SDS011;63191;39.566;2.654;2022-12-07T03:19:22;10.50;;;3.10;;
74660;SDS011;63191;39.566;2.654;2022-12-07T03:21:57;10.00;;;2.20;;
74660;SDS011;63191;39.566;2.654;2022-12-07T03:24:40;9.20;;;2.70;;
74660;SDS011;63191;39.566;2.654;2022-12-07T03:27:21;9.10;;;2.40;;
74660;SDS011;63191;39.566;2.654;2022-12-07T03:29:58;9.40;;;2.30;;
74660;SDS011;63191;39.566;2.654;2022-12-07T03:32:34;10.30;;;2.60;;
74660;SDS011;63191;39.566;2.654;2022-12-07T03:35:12;7.80;;;2.20;;
74660;SDS011;63191;39.566;2.654;2022-12-07T03:37:54;8.80;;;2.60;;
74660;SDS011;63191;39.566;2.654;2022-12-07T03:40:33;9.50;;;2.20;;
74660;SDS011;63191;39.566;2.654;2022-12-07T03:43:03;9.40;;;2.30;;
74660;SDS011;63191;39.566;2.654;2022-12-07T03:55:13;10.70;;;2.40;;
74660;SDS011;63191;39.566;2.654;2022-12-07T03:57:54;6.70;;;2.00;;
74660;SDS011;63191;39.566;2.654;2022-12-07T04:00:23;7.60;;;2.30;;
74660;SDS011;63191;39.566;2.654;2022-12-07T04:02:55;9.90;;;2.40;;
74660;SDS011;63191;39.566;2.654;2022-12-07T04:05:21;9.60;;;2.30;;
74660;SDS011;63191;39.566;2.654;2022-12-07T04:07:47;10.80;;;2.20;;
74660;SDS011;63191;39.566;2.654;2022-12-07T04:10:13;11.20;;;2.30;;
74660;SDS011;63191;39.566;2.654;2022-12-07T04:12:39;10.40;;;2.40;;
74660;SDS011;63191;39.566;2.654;2022-12-07T04:15:06;9.10;;;2.00;;
74660;SDS011;63191;39.566;2.654;2022-12-07T04:17:32;8.80;;;2.30;;
74660;SDS011;63191;39.566;2.654;2022-12-07T04:19:58;8.70;;;2.40;;
74660;SDS011;63191;39.566;2.654;2022-12-07T04:22:23;8.50;;;2.20;;
74660;SDS011;63191;39.566;2.654;2022-12-07T04:24:49;10.50;;;2.20;;
74660;SDS011;63191;39.566;2.654;2022-12-07T04:27:15;7.70;;;2.50;;
74660;SDS011;63191;39.566;2.654;2022-12-07T04:29:40;9.30;;;2.30;;
74660;SDS011;63191;39.566;2.654;2022-12-07T04:32:06;9.20;;;2.20;;
74660;SDS011;63191;39.566;2.654;2022-12-07T04:34:32;8.60;;;2.00;;
74660;SDS011;63191;39.566;2.654;2022-12-07T04:36:57;9.10;;;2.20;;
74660;SDS011;63191;39.566;2.654;2022-12-07T04:39:28;7.60;;;2.20;;
74660;SDS011;63191;39.566;2.654;2022-12-07T04:41:56;8.20;;;2.20;;
74660;SDS011;63191;39.566;2.654;2022-12-07T04:44:23;9.00;;;2.30;;
74660;SDS011;63191;39.566;2.654;2022-12-07T04:46:50;8.50;;;2.70;;
74660;SDS011;63191;39.566;2.654;2022-12-07T04:49:17;7.40;;;2.20;;
74660;SDS011;63191;39.566;2.654;2022-12-07T04:51:43;6.40;;;2.00;;
74660;SDS011;63191;39.566;2.654;2022-12-07T04:54:10;10.50;;;2.10;;
74660;SDS011;63191;39.566;2.654;2022-12-07T04:56:37;10.80;;;2.00;;
74660;SDS011;63191;39.566;2.654;2022-12-07T04:59:03;9.20;;;2.00;;
74660;SDS011;63191;39.566;2.654;2022-12-07T05:01:29;9.70;;;2.80;;
74660;SDS011;63191;39.566;2.654;2022-12-07T05:03:56;7.60;;;1.80;;
74660;SDS011;63191;39.566;2.654;2022-12-07T05:06:22;7.30;;;1.70;;
74660;SDS011;63191;39.566;2.654;2022-12-07T05:08:48;7.30;;;2.00;;
74660;SDS011;63191;39.566;2.654;2022-12-07T05:11:14;8.90;;;2.00;;
74660;SDS011;63191;39.566;2.654;2022-12-07T05:14:01;7.50;;;1.90;;
74660;SDS011;63191;39.566;2.654;2022-12-07T05:16:28;10.50;;;2.30;;
74660;SDS011;63191;39.566;2.654;2022-12-07T05:18:53;7.40;;;1.90;;
74660;SDS011;63191;39.566;2.654;2022-12-07T05:21:19;7.50;;;1.70;;
74660;SDS011;63191;39.566;2.654;2022-12-07T05:23:45;6.50;;;1.60;;
74660;SDS011;63191;39.566;2.654;2022-12-07T05:26:11;8.00;;;1.80;;
74660;SDS011;63191;39.566;2.654;2022-12-07T05:28:36;7.40;;;1.90;;
74660;SDS011;63191;39.566;2.654;2022-12-07T05:31:02;8.50;;;2.20;;
74660;SDS011;63191;39.566;2.654;2022-12-07T05:33:28;10.20;;;2.40;;
74660;SDS011;63191;39.566;2.654;2022-12-07T05:35:54;7.70;;;2.10;;
74660;SDS011;63191;39.566;2.654;2022-12-07T05:38:20;5.40;;;1.90;;
74660;SDS011;63191;39.566;2.654;2022-12-07T05:40:45;6.20;;;2.20;;
74660;SDS011;63191;39.566;2.654;2022-12-07T05:43:11;9.30;;;2.10;;
74660;SDS011;63191;39.566;2.654;2022-12-07T05:45:36;9.20;;;2.00;;
74660;SDS011;63191;39.566;2.654;2022-12-07T05:48:02;9.50;;;2.70;;
74660;SDS011;63191;39.566;2.654;2022-12-07T05:50:28;9.40;;;2.20;;
74660;SDS011;63191;39.566;2.654;2022-12-07T05:52:54;7.10;;;1.80;;
74660;SDS011;63191;39.566;2.654;2022-12-07T05:55:19;8.20;;;2.40;;
74660;SDS011;63191;39.566;2.654;2022-12-07T05:57:45;8.60;;;2.10;;
74660;SDS011;63191;39.566;2.654;2022-12-07T06:00:31;13.60;;;2.10;;
74660;SDS011;63191;39.566;2.654;2022-12-07T06:02:57;8.90;;;2.10;;
74660;SDS011;63191;39.566;2.654;2022-12-07T06:05:23;10.20;;;2.10;;
74660;SDS011;63191;39.566;2.654;2022-12-07T06:07:49;8.20;;;2.50;;
74660;SDS011;63191;39.566;2.654;2022-12-07T06:10:15;7.90;;;2.80;;
74660;SDS011;63191;39.566;2.654;2022-12-07T06:12:41;11.60;;;2.60;;
74660;SDS011;63191;39.566;2.654;2022-12-07T06:15:09;8.50;;;2.60;;
74660;SDS011;63191;39.566;2.654;2022-12-07T06:17:36;10.30;;;3.10;;
74660;SDS011;63191;39.566;2.654;2022-12-07T06:20:03;7.80;;;2.10;;
74660;SDS011;63191;39.566;2.654;2022-12-07T06:22:29;7.10;;;2.20;;
74660;SDS011;63191;39.566;2.654;2022-12-07T06:24:54;7.40;;;2.00;;
74660;SDS011;63191;39.566;2.654;2022-12-07T06:27:20;9.90;;;2.10;;
74660;SDS011;63191;39.566;2.654;2022-12-07T06:29:46;7.00;;;2.20;;
74660;SDS011;63191;39.566;2.654;2022-12-07T06:32:11;11.90;;;2.40;;
74660;SDS011;63191;39.566;2.654;2022-12-07T06:34:37;11.30;;;2.30;;
74660;SDS011;63191;39.566;2.654;2022-12-07T06:37:03;6.90;;;1.80;;
74660;SDS011;63191;39.566;2.654;2022-12-07T06:39:29;7.60;;;2.30;;
74660;SDS011;63191;39.566;2.654;2022-12-07T06:41:56;8.00;;;2.20;;
74660;SDS011;63191;39.566;2.654;2022-12-07T06:44:23;8.90;;;2.40;;
74660;SDS011;63191;39.566;2.654;2022-12-07T06:46:50;7.00;;;1.80;;
74660;SDS011;63191;39.566;2.654;2022-12-07T06:49:16;10.60;;;2.20;;
74660;SDS011;63191;39.566;2.654;2022-12-07T06:51:42;9.00;;;2.30;;
74660;SDS011;63191;39.566;2.654;2022-12-07T06:54:09;7.50;;;2.00;;
74660;SDS011;63191;39.566;2.654;2022-12-07T06:56:36;10.60;;;2.40;;
74660;SDS011;63191;39.566;2.654;2022-12-07T06:59:02;10.10;;;2.00;;
74660;SDS011;63191;39.566;2.654;2022-12-07T07:01:29;9.20;;;2.00;;
74660;SDS011;63191;39.566;2.654;2022-12-07T07:03:54;6.60;;;1.90;;
74660;SDS011;63191;39.566;2.654;2022-12-07T07:06:20;9.00;;;2.10;;
74660;SDS011;63191;39.566;2.654;2022-12-07T07:08:46;10.60;;;2.20;;
74660;SDS011;63191;39.566;2.654;2022-12-07T07:11:12;9.70;;;2.30;;
74660;SDS011;63191;39.566;2.654;2022-12-07T07:13:38;6.90;;;2.00;;
74660;SDS011;63191;39.566;2.654;2022-12-07T07:16:04;7.30;;;1.80;;
74660;SDS011;63191;39.566;2.654;2022-12-07T07:18:30;9.20;;;2.10;;
74660;SDS011;63191;39.566;2.654;2022-12-07T07:20:56;15.50;;;2.30;;
74660;SDS011;63191;39.566;2.654;2022-12-07T07:23:22;8.90;;;2.60;;
74660;SDS011;63191;39.566;2.654;2022-12-07T07:25:48;9.50;;;2.60;;
74660;SDS011;63191;39.566;2.654;2022-12-07T07:28:14;7.70;;;2.90;;
74660;SDS011;63191;39.566;2.654;2022-12-07T07:30:40;9.40;;;3.10;;
74660;SDS011;63191;39.566;2.654;2022-12-07T07:33:07;9.80;;;3.40;;
74660;SDS011;63191;39.566;2.654;2022-12-07T07:35:34;12.10;;;3.20;;
74660;SDS011;63191;39.566;2.654;2022-12-07T07:38:00;12.70;;;3.20;;
74660;SDS011;63191;39.566;2.654;2022-12-07T07:40:27;12.80;;;3.20;;
74660;SDS011;63191;39.566;2.654;2022-12-07T07:42:54;11.60;;;2.40;;
74660;SDS011;63191;39.566;2.654;2022-12-07T07:45:22;8.10;;;2.40;;
74660;SDS011;63191;39.566;2.654;2022-12-07T07:47:49;10.10;;;2.10;;
74660;SDS011;63191;39.566;2.654;2022-12-07T07:50:16;12.00;;;2.40;;
74660;SDS011;63191;39.566;2.654;2022-12-07T07:52:43;10.60;;;2.60;;
74660;SDS011;63191;39.566;2.654;2022-12-07T07:55:09;15.40;;;3.00;;
74660;SDS011;63191;39.566;2.654;2022-12-07T07:57:36;10.40;;;2.20;;
74660;SDS011;63191;39.566;2.654;2022-12-07T08:00:04;10.10;;;2.80;;
74660;SDS011;63191;39.566;2.654;2022-12-07T08:02:32;9.10;;;2.30;;
74660;SDS011;63191;39.566;2.654;2022-12-07T08:04:58;9.30;;;2.40;;
74660;SDS011;63191;39.566;2.654;2022-12-07T08:07:23;13.10;;;2.80;;
74660;SDS011;63191;39.566;2.654;2022-12-07T08:09:49;9.00;;;2.30;;
74660;SDS011;63191;39.566;2.654;2022-12-07T08:12:14;8.60;;;2.50;;
74660;SDS011;63191;39.566;2.654;2022-12-07T08:14:40;9.40;;;2.20;;
74660;SDS011;63191;39.566;2.654;2022-12-07T08:17:06;14.20;;;2.80;;
74660;SDS011;63191;39.566;2.654;2022-12-07T08:19:32;9.10;;;2.70;;
74660;SDS011;63191;39.566;2.654;2022-12-07T08:21:58;7.70;;;2.70;;
74660;SDS011;63191;39.566;2.654;2022-12-07T08:24:24;9.10;;;2.80;;
74660;SDS011;63191;39.566;2.654;2022-12-07T08:26:50;8.80;;;2.70;;
74660;SDS011;63191;39.566;2.654;2022-12-07T08:29:16;9.00;;;3.00;;
74660;SDS011;63191;39.566;2.654;2022-12-07T08:31:42;10.30;;;3.10;;
74660;SDS011;63191;39.566;2.654;2022-12-07T08:34:10;10.50;;;2.60;;
74660;SDS011;63191;39.566;2.654;2022-12-07T08:36:37;8.60;;;2.40;;
74660;SDS011;63191;39.566;2.654;2022-12-07T08:39:03;12.70;;;2.30;;
74660;SDS011;63191;39.566;2.654;2022-12-07T08:41:29;15.90;;;3.00;;
74660;SDS011;63191;39.566;2.654;2022-12-07T08:43:55;12.90;;;2.90;;
74660;SDS011;63191;39.566;2.654;2022-12-07T08:46:32;13.20;;;3.20;;
74660;SDS011;63191;39.566;2.654;2022-12-07T08:49:13;12.60;;;3.30;;
74660;SDS011;63191;39.566;2.654;2022-12-07T08:51:40;22.80;;;4.30;;
74660;SDS011;63191;39.566;2.654;2022-12-07T08:54:09;28.20;;;4.30;;
74660;SDS011;63191;39.566;2.654;2022-12-07T08:56:37;22.00;;;3.70;;
74660;SDS011;63191;39.566;2.654;2022-12-07T08:59:04;17.60;;;3.50;;
74660;SDS011;63191;39.566;2.654;2022-12-07T09:01:30;16.40;;;3.70;;
74660;SDS011;63191;39.566;2.654;2022-12-07T09:03:58;15.60;;;3.20;;
74660;SDS011;63191;39.566;2.654;2022-12-07T09:06:24;15.60;;;3.50;;
74660;SDS011;63191;39.566;2.654;2022-12-07T09:08:51;10.30;;;3.10;;
74660;SDS011;63191;39.566;2.654;2022-12-07T09:11:19;12.80;;;3.80;;
74660;SDS011;63191;39.566;2.654;2022-12-07T09:13:44;16.50;;;3.70;;
74660;SDS011;63191;39.566;2.654;2022-12-07T09:16:10;10.80;;;2.50;;
74660;SDS011;63191;39.566;2.654;2022-12-07T09:18:36;10.30;;;3.00;;
74660;SDS011;63191;39.566;2.654;2022-12-07T09:21:01;13.30;;;2.60;;
74660;SDS011;63191;39.566;2.654;2022-12-07T09:23:27;12.70;;;3.00;;
74660;SDS011;63191;39.566;2.654;2022-12-07T09:25:53;8.70;;;2.80;;
74660;SDS011;63191;39.566;2.654;2022-12-07T09:28:18;13.90;;;2.70;;
74660;SDS011;63191;39.566;2.654;2022-12-07T09:30:48;10.50;;;2.50;;
74660;SDS011;63191;39.566;2.654;2022-12-07T09:33:14;11.00;;;2.60;;
74660;SDS011;63191;39.566;2.654;2022-12-07T09:35:51;11.10;;;2.20;;
74660;SDS011;63191;39.566;2.654;2022-12-07T09:38:18;12.80;;;2.40;;
74660;SDS011;63191;39.566;2.654;2022-12-07T09:40:44;7.70;;;2.10;;
74660;SDS011;63191;39.566;2.654;2022-12-07T09:43:20;8.20;;;2.50;;
74660;SDS011;63191;39.566;2.654;2022-12-07T09:45:50;9.10;;;2.70;;
74660;SDS011;63191;39.566;2.654;2022-12-07T09:48:29;9.50;;;2.60;;
74660;SDS011;63191;39.566;2.654;2022-12-07T09:50:58;10.90;;;3.20;;
74660;SDS011;63191;39.566;2.654;2022-12-07T09:53:32;10.90;;;2.90;;
74660;SDS011;63191;39.566;2.654;2022-12-07T09:55:59;7.50;;;2.70;;
74660;SDS011;63191;39.566;2.654;2022-12-07T09:58:28;10.20;;;3.30;;
74660;SDS011;63191;39.566;2.654;2022-12-07T10:04:00;11.10;;;3.20;;
74660;SDS011;63191;39.566;2.654;2022-12-07T10:06:32;10.10;;;3.00;;
74660;SDS011;63191;39.566;2.654;2022-12-07T10:08:58;9.60;;;2.70;;
74660;SDS011;63191;39.566;2.654;2022-12-07T10:11:23;9.10;;;3.20;;
74660;SDS011;63191;39.566;2.654;2022-12-07T10:13:52;8.60;;;3.00;;
74660;SDS011;63191;39.566;2.654;2022-12-07T10:18:54;11.90;;;3.10;;
74660;SDS011;63191;39.566;2.654;2022-12-07T10:21:28;13.10;;;3.60;;
74660;SDS011;63191;39.566;2.654;2022-12-07T10:24:04;9.80;;;3.60;;
74660;SDS011;63191;39.566;2.654;2022-12-07T10:26:40;9.40;;;3.10;;
74660;SDS011;63191;39.566;2.654;2022-12-07T10:29:23;11.70;;;3.00;;
74660;SDS011;63191;39.566;2.654;2022-12-07T10:32:06;12.30;;;2.70;;
74660;SDS011;63191;39.566;2.654;2022-12-07T10:37:45;12.80;;;3.00;;
74660;SDS011;63191;39.566;2.654;2022-12-07T10:40:32;21.60;;;4.70;;
74660;SDS011;63191;39.566;2.654;2022-12-07T10:43:20;14.80;;;3.50;;
74660;SDS011;63191;39.566;2.654;2022-12-07T10:51:16;11.80;;;3.10;;
74660;SDS011;63191;39.566;2.654;2022-12-07T10:57:02;8.10;;;2.50;;
74660;SDS011;63191;39.566;2.654;2022-12-07T11:03:06;13.10;;;3.20;;
74660;SDS011;63191;39.566;2.654;2022-12-07T11:09:04;8.20;;;3.20;;
74660;SDS011;63191;39.566;2.654;2022-12-07T11:14:47;8.40;;;3.50;;
74660;SDS011;63191;39.566;2.654;2022-12-07T11:38:53;8.90;;;3.20;;
74660;SDS011;63191;39.566;2.654;2022-12-07T11:41:31;13.00;;;3.40;;
74660;SDS011;63191;39.566;2.654;2022-12-07T11:52:39;9.50;;;3.20;;
74660;SDS011;63191;39.566;2.654;2022-12-07T11:55:40;9.70;;;2.80;;
74660;SDS011;63191;39.566;2.654;2022-12-07T12:01:28;10.50;;;4.10;;
74660;SDS011;63191;39.566;2.654;2022-12-07T12:06:35;12.40;;;2.80;;
74660;SDS011;63191;39.566;2.654;2022-12-07T12:09:20;13.70;;;3.10;;
74660;SDS011;63191;39.566;2.654;2022-12-07T12:21:09;7.40;;;3.10;;
74660;SDS011;63191;39.566;2.654;2022-12-07T12:23:51;10.50;;;3.80;;
74660;SDS011;63191;39.566;2.654;2022-12-07T12:26:28;10.50;;;3.40;;
74660;SDS011;63191;39.566;2.654;2022-12-07T12:29:05;8.60;;;3.30;;
74660;SDS011;63191;39.566;2.654;2022-12-07T12:31:39;14.60;;;4.20;;
74660;SDS011;63191;39.566;2.654;2022-12-07T12:35:20;8.20;;;3.10;;
74660;SDS011;63191;39.566;2.654;2022-12-07T12:37:41;13.10;;;5.40;;
74660;SDS011;63191;39.566;2.654;2022-12-07T12:42:57;10.80;;;3.20;;
74660;SDS011;63191;39.566;2.654;2022-12-07T12:45:28;11.80;;;3.90;;
74660;SDS011;63191;39.566;2.654;2022-12-07T12:48:28;8.80;;;2.60;;
74660;SDS011;63191;39.566;2.654;2022-12-07T12:57:22;11.00;;;3.10;;
74660;SDS011;63191;39.566;2.654;2022-12-07T13:16:16;6.20;;;1.70;;
74660;SDS011;63191;39.566;2.654;2022-12-07T13:18:41;7.00;;;1.90;;
74660;SDS011;63191;39.566;2.654;2022-12-07T13:42:28;7.50;;;1.80;;
74660;SDS011;63191;39.566;2.654;2022-12-07T13:44:55;8.70;;;1.90;;
74660;SDS011;63191;39.566;2.654;2022-12-07T13:50:29;7.90;;;1.80;;
74660;SDS011;63191;39.566;2.654;2022-12-07T13:52:58;10.70;;;2.00;;
74660;SDS011;63191;39.566;2.654;2022-12-07T13:55:26;6.30;;;1.70;;
74660;SDS011;63191;39.566;2.654;2022-12-07T13:57:54;6.40;;;1.20;;
74660;SDS011;63191;39.566;2.654;2022-12-07T14:00:26;6.40;;;1.30;;
74660;SDS011;63191;39.566;2.654;2022-12-07T14:05:38;7.50;;;1.40;;
74660;SDS011;63191;39.566;2.654;2022-12-07T14:13:34;10.80;;;1.50;;
74660;SDS011;63191;39.566;2.654;2022-12-07T14:16:32;9.70;;;1.80;;
74660;SDS011;63191;39.566;2.654;2022-12-07T14:19:04;10.00;;;1.90;;
74660;SDS011;63191;39.566;2.654;2022-12-07T14:21:33;7.60;;;1.20;;
74660;SDS011;63191;39.566;2.654;2022-12-07T14:24:09;10.30;;;1.30;;
74660;SDS011;63191;39.566;2.654;2022-12-07T14:26:39;6.40;;;1.10;;
74660;SDS011;63191;39.566;2.654;2022-12-07T14:29:38;5.20;;;0.90;;
74660;SDS011;63191;39.566;2.654;2022-12-07T14:32:25;5.80;;;1.30;;
74660;SDS011;63191;39.566;2.654;2022-12-07T14:35:08;7.20;;;1.40;;
74660;SDS011;63191;39.566;2.654;2022-12-07T14:37:36;6.40;;;1.40;;
74660;SDS011;63191;39.566;2.654;2022-12-07T14:40:03;7.70;;;1.30;;
74660;SDS011;63191;39.566;2.654;2022-12-07T14:42:31;6.30;;;1.60;;
74660;SDS011;63191;39.566;2.654;2022-12-07T14:44:57;7.60;;;1.30;;
74660;SDS011;63191;39.566;2.654;2022-12-07T14:47:25;8.50;;;1.70;;
74660;SDS011;63191;39.566;2.654;2022-12-07T14:49:52;7.50;;;1.50;;
74660;SDS011;63191;39.566;2.654;2022-12-07T14:52:26;8.40;;;1.70;;
74660;SDS011;63191;39.566;2.654;2022-12-07T14:54:53;6.30;;;1.80;;
74660;SDS011;63191;39.566;2.654;2022-12-07T14:57:19;9.90;;;2.00;;
74660;SDS011;63191;39.566;2.654;2022-12-07T14:59:45;10.00;;;2.10;;
74660;SDS011;63191;39.566;2.654;2022-12-07T15:02:12;6.00;;;1.20;;
74660;SDS011;63191;39.566;2.654;2022-12-07T15:04:39;6.80;;;1.70;;
74660;SDS011;63191;39.566;2.654;2022-12-07T15:07:13;5.80;;;1.40;;
74660;SDS011;63191;39.566;2.654;2022-12-07T15:09:43;8.30;;;1.50;;
74660;SDS011;63191;39.566;2.654;2022-12-07T15:12:08;6.90;;;1.30;;
74660;SDS011;63191;39.566;2.654;2022-12-07T15:14:34;11.80;;;1.90;;
74660;SDS011;63191;39.566;2.654;2022-12-07T15:17:00;9.80;;;1.90;;
74660;SDS011;63191;39.566;2.654;2022-12-07T15:19:26;10.30;;;1.50;;
74660;SDS011;63191;39.566;2.654;2022-12-07T15:21:53;9.00;;;1.60;;
74660;SDS011;63191;39.566;2.654;2022-12-07T15:24:19;6.40;;;1.30;;
74660;SDS011;63191;39.566;2.654;2022-12-07T15:26:46;4.50;;;1.00;;
74660;SDS011;63191;39.566;2.654;2022-12-07T15:29:13;7.80;;;1.30;;
74660;SDS011;63191;39.566;2.654;2022-12-07T15:31:40;10.10;;;3.00;;
74660;SDS011;63191;39.566;2.654;2022-12-07T15:34:06;8.70;;;2.30;;
74660;SDS011;63191;39.566;2.654;2022-12-07T15:36:33;4.80;;;1.10;;
74660;SDS011;63191;39.566;2.654;2022-12-07T15:38:59;7.60;;;1.70;;
74660;SDS011;63191;39.566;2.654;2022-12-07T15:41:25;10.70;;;1.50;;
74660;SDS011;63191;39.566;2.654;2022-12-07T15:43:51;9.50;;;1.70;;
74660;SDS011;63191;39.566;2.654;2022-12-07T15:46:55;7.40;;;1.30;;
74660;SDS011;63191;39.566;2.654;2022-12-07T15:49:21;6.30;;;1.30;;
74660;SDS011;63191;39.566;2.654;2022-12-07T15:51:47;10.00;;;1.60;;
74660;SDS011;63191;39.566;2.654;2022-12-07T15:54:18;5.00;;;1.20;;
74660;SDS011;63191;39.566;2.654;2022-12-07T15:56:48;7.30;;;1.40;;
74660;SDS011;63191;39.566;2.654;2022-12-07T15:59:14;13.60;;;3.10;;
74660;SDS011;63191;39.566;2.654;2022-12-07T16:01:40;9.20;;;2.10;;
74660;SDS011;63191;39.566;2.654;2022-12-07T16:04:06;8.80;;;2.20;;
74660;SDS011;63191;39.566;2.654;2022-12-07T16:06:32;9.30;;;1.80;;
74660;SDS011;63191;39.566;2.654;2022-12-07T16:08:58;7.00;;;1.80;;
74660;SDS011;63191;39.566;2.654;2022-12-07T16:11:24;16.80;;;2.50;;
74660;SDS011;63191;39.566;2.654;2022-12-07T16:13:50;11.10;;;2.40;;
74660;SDS011;63191;39.566;2.654;2022-12-07T16:16:17;10.30;;;2.10;;
74660;SDS011;63191;39.566;2.654;2022-12-07T16:18:45;13.00;;;2.50;;
74660;SDS011;63191;39.566;2.654;2022-12-07T16:21:12;15.20;;;2.80;;
74660;SDS011;63191;39.566;2.654;2022-12-07T16:26:13;11.20;;;2.90;;
74660;SDS011;63191;39.566;2.654;2022-12-07T16:28:41;12.70;;;2.80;;
74660;SDS011;63191;39.566;2.654;2022-12-07T16:31:15;9.50;;;2.70;;
74660;SDS011;63191;39.566;2.654;2022-12-07T16:33:43;10.10;;;3.20;;
74660;SDS011;63191;39.566;2.654;2022-12-07T16:36:11;9.60;;;3.20;;
74660;SDS011;63191;39.566;2.654;2022-12-07T16:38:38;8.20;;;2.20;;
74660;SDS011;63191;39.566;2.654;2022-12-07T16:41:05;9.50;;;2.30;;
74660;SDS011;63191;39.566;2.654;2022-12-07T16:43:33;6.80;;;2.50;;
74660;SDS011;63191;39.566;2.654;2022-12-07T16:45:59;12.30;;;2.30;;
74660;SDS011;63191;39.566;2.654;2022-12-07T16:48:25;7.30;;;2.10;;
74660;SDS011;63191;39.566;2.654;2022-12-07T16:50:51;7.80;;;2.10;;
74660;SDS011;63191;39.566;2.654;2022-12-07T16:53:20;8.60;;;2.10;;
74660;SDS011;63191;39.566;2.654;2022-12-07T16:55:47;11.30;;;3.00;;
74660;SDS011;63191;39.566;2.654;2022-12-07T16:58:14;13.10;;;5.60;;
74660;SDS011;63191;39.566;2.654;2022-12-07T17:00:43;14.60;;;6.70;;
74660;SDS011;63191;39.566;2.654;2022-12-07T17:03:09;11.20;;;5.50;;
74660;SDS011;63191;39.566;2.654;2022-12-07T17:05:41;11.00;;;4.40;;
74660;SDS011;63191;39.566;2.654;2022-12-07T17:08:08;13.70;;;3.10;;
74660;SDS011;63191;39.566;2.654;2022-12-07T17:10:37;10.20;;;3.50;;
74660;SDS011;63191;39.566;2.654;2022-12-07T17:13:05;9.00;;;3.40;;
74660;SDS011;63191;39.566;2.654;2022-12-07T17:15:56;11.00;;;3.60;;
74660;SDS011;63191;39.566;2.654;2022-12-07T17:18:22;10.20;;;3.40;;
74660;SDS011;63191;39.566;2.654;2022-12-07T17:20:47;12.40;;;3.30;;
74660;SDS011;63191;39.566;2.654;2022-12-07T17:23:13;12.30;;;3.20;;
74660;SDS011;63191;39.566;2.654;2022-12-07T17:25:39;10.80;;;3.10;;
74660;SDS011;63191;39.566;2.654;2022-12-07T17:28:04;13.50;;;3.70;;
74660;SDS011;63191;39.566;2.654;2022-12-07T17:30:30;15.90;;;6.00;;
74660;SDS011;63191;39.566;2.654;2022-12-07T17:32:56;13.70;;;4.60;;
74660;SDS011;63191;39.566;2.654;2022-12-07T17:35:22;11.50;;;4.10;;
74660;SDS011;63191;39.566;2.654;2022-12-07T17:37:48;11.40;;;4.50;;
74660;SDS011;63191;39.566;2.654;2022-12-07T17:40:14;14.60;;;5.40;;